Warning: Javascript must be enabled to use all the features on this page!


Page Loading - Please Wait...

* We've detected you're using a mobile device. Find our Next Generation Station Page here.
Click to hideNews Bulletins

Peak Streamflow for the Nation

USGS 03011020 ALLEGHENY RIVER AT SALAMANCA NY

Cattaraugus County, New York
Hydrologic Unit Code 05010001
Latitude  42°09'23", Longitude  78°42'55" NAD83
Drainage area 1,608  square miles
Contributing drainage area 1,608  square miles
Gage datum 1,357.49 feet above NAVD88
Output formats
Table
Graph
Tab-separated file
peakfq (watstore) format
Reselect output format
Water
Year
Date Gage
Height
(feet)
Stream-
flow
(cfs)
1904 1904-03-26 11.403 28,400
1905 1905-03-20 11.803 30,600
1906 1906-01-24 8.603 14,800
1907 1906-12-15 9.103 17,000
1908 1908-03-16 11.503 29,000
1909 1909-05-02 13.003 37,800
1910 1910-03-02 13.603 41,000
1911 1911-01-27 9.703 19,700
1912 1912-04-02 11.203 27,300
1913 1913-03-26 13.003 37,800
1914 1914-03-28 12.003 31,800
1915 1915-02-25 10.103 21,300
1916 1916-03-29 12.803 36,600
1917 1917-03-12 9.603 18,800
1918 1918-03-15 11.703 30,000
1919 1919-05-23 10.123 21,400
1920 1920-03-15 11.953 31,500
1921 1921-03-07 8.453 13,500
1922 1922-06-12 9.003 16,200
1923 1923-03-05 10.323 22,900
1924 1924-09-30 9.853 20,400
1925 1925-02-12   24,000
1926 1926-04-09 9.203 17,200
1927 1927-03-22 9.303 18,500
1928 1927-12-01 12.603 36,600
1929 1929-01-19 10.903 26,500
1930 1930-02-26 9.603 19,500
1931 1931-04-11 8.643 15,000
1932 1932-05-09 9.173 17,400
1933 1933-03-15 8.833 15,500
1934 1934-01-02 9.522,3 18,800
1935 1935-01-10 9.623 19,300
1936 1936-03-27 11.842,3 30,700
1937 1937-01-26 10.873 24,400
1938 1938-02-14 10.053 20,400
1939 1939-02-20 11.023 25,200
1940 1940-04-05 11.993 30,400
1941 1941-04-06 10.033 20,200
1942 1942-07-20 14.553 45,300
1943 1942-12-30 11.983 29,900
1944 1944-03-17 9.813 18,700
1945 1945-03-22 10.852,3 23,800
1946 1946-05-28 12.533 34,900
1947 1947-04-06 12.843 37,000
1948 1948-03-22 13.273 38,500
1949 1949-01-06 7.863 10,300
1950 1950-03-29 11.933 30,100
1951 1950-11-26 12.293 32,200
1952 1952-03-12 10.723 23,300
1953 1953-05-31 9.893 19,200
1954 1954-03-02 9.353 16,600
1955 1955-03-02 11.313 25,200
1956 1956-03-08 15.113 49,100
1957 1957-01-24 11.393 25,600
1958 1958-04-07 10.793 22,400
1959 1959-01-22 12.993 35,000
1960 1960-04-01 11.953 28,800
1961 1961-04-26 12.553 32,400
1962 1962-04-08 8.583 12,800
1963 1963-03-27 11.643 27,000
1964 1964-03-06 12.873 34,300
1965 1965-02-13 9.676 17,900
1966 1966-02-14 9.352 16,600
1967 1967-09-29 16.24 41,700
1968 1967-10-20 9.10 15,500
1969 1969-04-06 10.19 19,000
1970 1970-04-03 10.48 20,000
1971 1971-03-16 10.08 18,600
1972 1972-06-23 24.01 73,0009
1973 1972-12-07 11.75 21,600
1974 1974-04-04 10.34 17,900
1975 1975-02-25 12.77 26,000
1976 1976-02-19 14.39 31,900
1977 1977-07-08 11.13 20,900
1978 1978-04-05 11.602 22,200
1979 1979-01-02 11.63 22,300
1980 1980-03-22 9.69 16,200
1981 1981-02-21 12.94 26,800
1982 1981-10-28 10.72 19,400
1983 1982-12-26 10.12 17,500
1984 1984-02-15 13.73 29,600
1985 1985-02-25 11.61 22,300
1986 1986-01-21 9.632 16,100
1987 1987-07-03 9.53 15,800
1988 1988-04-04 8.81 13,700
1989 1989-06-23 15.44 35,800
1990 1990-02-16 10.86 19,800
1991 1990-12-31 11.99 23,500
1992 1992-09-23 9.44 15,500
1993 1993-04-02 13.78 29,700
1994 1994-03-25 11.28 21,200
1995 1994-11-02 8.87 14,100
1996 1996-01-19 16.41 39,600
1997 1997-02-28 10.88 19,900
1998 1998-01-09 14.28 31,500
1999 1999-01-24 11.51 21,900
2000 2000-02-26 9.67 16,300
2001 2001-04-08 9.12 14,700
2002 2002-02-01 10.34 18,200
2003 2003-03-22 12.02 23,600
2004 2004-09-09 12.33 24,600
2005 2005-01-14 11.82 22,900
2006 2005-11-30 10.67 19,200
2007 2007-03-15 13.89 30,100
2008 2008-02-07 12.62 25,600
2009 2009-03-09 11.62 22,300
2010 2010-01-25 12.29 24,500
2011 2010-12-01 14.42 32,000
2012 2012-01-28 8.09 11,900
2013 2013-01-31 9.54 15,900
2014 2013-12-22 11.84 23,000
2015 2015-04-04 9.87 16,900
2016 2016-04-12 8.88 14,100
2017 2017-01-13 13.83 29,900
2018 2018-01-13 13.43 28,500
2019 2019-02-08 9.31 15,500
2020 2020-02-27 9.03 14,800
?
  Peak Gage-Height Qualification Codes.
?
  Peak Streamflow Qualification Codes.